Time;durP1;ratioP1;P1;durP2;ratioP2;P2;SDS_P1;SDS_P2;PMS_P1;PMS_P2;Temp;Humidity;BMP_temperature;BMP_pressure;BME280_temperature;BME280_humidity;BME280_pressure;Samples;Min_cycle;Max_cycle;Signal;HPM_P1;HPM_P2
2023/11/05 00:02:16;;;;;;;0.37;0.30;;;;;;;9.97;59.73;97664.62;5286812;27;20159;-92
2023/11/05 00:04:41;;;;;;;0.52;0.52;;;;;;;9.90;59.72;97662.47;5286750;27;20111;-92
2023/11/05 00:07:07;;;;;;;0.00;0.00;;;;;;;10.07;59.73;97660.50;5286828;27;20410;-92
2023/11/05 00:09:32;;;;;;;0.47;0.47;;;;;;;10.18;59.74;97666.81;5286684;27;20476;-91
2023/11/05 00:11:58;;;;;;;1.77;0.35;;;;;;;10.23;59.74;97656.97;5286980;27;20079;-92
2023/11/05 00:14:23;;;;;;;0.00;0.00;;;;;;;10.02;59.73;97661.72;5286345;27;20101;-91
2023/11/05 00:16:49;;;;;;;0.43;0.43;;;;;;;10.11;59.74;97664.56;5286841;27;20096;-92
2023/11/05 00:19:14;;;;;;;0.10;0.10;;;;;;;10.19;59.74;97664.09;5286503;27;20091;-91
2023/11/05 00:21:40;;;;;;;0.00;0.00;;;;;;;10.03;59.74;97666.81;5285825;27;20065;-91
2023/11/05 00:24:06;;;;;;;0.62;0.62;;;;;;;9.99;59.73;97672.31;5286276;27;20116;-91
2023/11/05 00:26:32;;;;;;;0.05;0.05;;;;;;;9.97;59.73;97669.00;5323779;26;20057;-91
2023/11/05 00:28:58;;;;;;;0.00;0.00;;;;;;;10.19;59.74;97674.50;5282823;27;20107;-91
2023/11/05 00:31:24;;;;;;;0.30;0.30;;;;;;;10.23;59.74;97668.19;5283077;27;20555;-91
2023/11/05 00:33:49;;;;;;;0.15;0.15;;;;;;;10.25;59.75;97661.13;5283015;27;20085;-92
2023/11/05 00:36:15;;;;;;;1.40;1.02;;;;;;;10.22;59.74;97637.94;5300605;27;20069;-93
2023/11/05 00:38:40;;;;;;;0.20;0.20;;;;;;;10.40;59.76;97654.94;5301260;27;20056;-92
2023/11/05 00:41:06;;;;;;;3.97;0.80;;;;;;;10.45;59.75;97659.88;5300687;27;22024;-90
2023/11/05 00:43:31;;;;;;;11.40;1.05;;;;;;;10.49;59.76;97661.31;5300937;27;20326;-90
2023/11/05 00:45:56;;;;;;;0.25;0.25;;;;;;;10.64;59.77;97668.13;5300996;27;20072;-91
2023/11/05 00:48:22;;;;;;;0.05;0.05;;;;;;;10.68;59.76;97654.00;5300546;27;24001;-91
2023/11/05 00:50:47;;;;;;;0.00;0.00;;;;;;;10.77;59.78;97650.78;5282048;27;20128;-90
2023/11/05 00:53:13;;;;;;;0.00;0.00;;;;;;;10.92;59.78;97641.13;5301019;27;20151;-90
2023/11/05 00:55:38;;;;;;;0.45;0.43;;;;;;;11.07;59.79;97649.66;5282707;27;20053;-90
2023/11/05 00:58:04;;;;;;;0.08;0.08;;;;;;;11.00;59.79;97648.41;5282236;27;26720;-90
2023/11/05 01:00:29;;;;;;;0.00;0.00;;;;;;;11.01;59.79;97657.88;5301028;27;20085;-91
2023/11/05 01:02:54;;;;;;;0.08;0.08;;;;;;;10.93;59.78;97652.38;5300965;27;20057;-91
2023/11/05 01:05:20;;;;;;;0.17;0.17;;;;;;;10.91;59.78;97652.47;5301249;27;20077;-91
2023/11/05 01:07:45;;;;;;;0.00;0.00;;;;;;;10.89;59.78;97658.72;5301112;27;20108;-91
2023/11/05 01:10:10;;;;;;;0.00;0.00;;;;;;;11.14;59.79;97650.94;5282932;27;20064;-90
2023/11/05 01:12:36;;;;;;;0.57;0.57;;;;;;;11.16;59.79;97646.44;5282585;27;20151;-91
2023/11/05 01:15:03;;;;;;;0.00;0.00;;;;;;;11.20;59.79;97640.09;5282389;27;25267;-91
2023/11/05 01:17:29;;;;;;;0.35;0.35;;;;;;;11.34;59.81;97639.13;5282935;27;20048;-91
2023/11/05 01:19:54;;;;;;;0.00;0.00;;;;;;;11.25;59.80;97638.00;5303415;27;20096;-91
2023/11/05 01:22:19;;;;;;;0.15;0.05;;;;;;;11.34;59.80;97641.72;5301670;27;20076;-91
2023/11/05 01:24:45;;;;;;;0.88;0.80;;;;;;;11.40;59.81;97650.94;5282018;27;25295;-91
2023/11/05 01:27:10;;;;;;;0.00;0.00;;;;;;;11.33;59.80;97651.31;5302021;26;20365;-91
2023/11/05 01:29:35;;;;;;;0.00;0.00;;;;;;;11.22;59.79;97645.19;5308137;26;20436;-91
2023/11/05 01:32:01;;;;;;;0.00;0.00;;;;;;;11.30;59.79;97637.69;5307648;26;22166;-91
2023/11/05 01:34:26;;;;;;;0.00;0.00;;;;;;;11.28;59.80;97631.75;5307553;26;22312;-91
2023/11/05 01:36:52;;;;;;;0.13;0.13;;;;;;;11.26;59.80;97626.62;5307914;26;20111;-91
2023/11/05 01:39:19;;;;;;;0.40;0.40;;;;;;;11.45;59.80;97626.22;5308279;26;20078;-90
2023/11/05 01:41:45;;;;;;;0.00;0.00;;;;;;;11.56;59.81;97612.44;5308097;26;20461;-92
2023/11/05 01:44:10;;;;;;;0.00;0.00;;;;;;;11.83;59.83;97597.50;5307987;26;20075;-92
2023/11/05 01:46:36;;;;;;;0.20;0.20;;;;;;;11.70;59.82;97588.84;5308228;26;20044;-91
2023/11/05 01:49:01;;;;;;;0.10;0.10;;;;;;;11.53;59.82;97594.41;5308086;26;20112;-92
2023/11/05 01:51:27;;;;;;;0.70;0.30;;;;;;;11.54;59.82;97590.88;5308168;26;20114;-91
2023/11/05 01:53:54;;;;;;;0.98;0.80;;;;;;;11.31;59.81;97595.06;5307860;26;29369;-92
2023/11/05 01:56:20;;;;;;;0.00;0.00;;;;;;;11.29;59.80;97594.34;5308581;26;20065;-92
2023/11/05 01:58:47;;;;;;;0.10;0.10;;;;;;;11.31;59.81;97593.28;5289717;26;20789;-91
2023/11/05 02:01:13;;;;;;;0.10;0.10;;;;;;;11.39;59.81;97592.78;5290182;26;20072;-91
2023/11/05 02:03:39;;;;;;;2.83;1.75;;;;;;;11.20;59.80;97580.19;5308317;26;20469;-91
2023/11/05 02:06:04;;;;;;;2.75;0.45;;;;;;;11.25;59.80;97587.69;5309158;26;20425;-91
2023/11/05 02:08:30;;;;;;;0.10;0.10;;;;;;;11.22;59.79;97583.53;5291197;26;20673;-90
2023/11/05 02:10:56;;;;;;;0.08;0.08;;;;;;;11.30;59.81;97586.41;5308560;26;20057;-90
2023/11/05 02:13:22;;;;;;;2.20;1.52;;;;;;;11.19;59.79;97588.12;5309053;26;20071;-91
2023/11/05 02:15:47;;;;;;;0.17;0.17;;;;;;;11.29;59.79;97584.75;5308981;26;20052;-91
2023/11/05 02:18:13;;;;;;;0.98;0.90;;;;;;;11.15;59.79;97584.06;5308939;26;20064;-91
2023/11/05 02:20:38;;;;;;;0.50;0.50;;;;;;;11.05;59.79;97597.69;5308973;26;20101;-90
2023/11/05 02:23:04;;;;;;;0.90;0.80;;;;;;;11.26;59.79;97591.94;5308727;26;20131;-90
2023/11/05 02:25:29;;;;;;;0.10;0.10;;;;;;;11.24;59.80;97589.47;5308876;26;20052;-90
2023/11/05 02:27:55;;;;;;;0.10;0.10;;;;;;;11.24;59.80;97576.44;5309061;26;20446;-90
2023/11/05 02:30:22;;;;;;;0.82;0.82;;;;;;;11.23;59.80;97574.78;5308734;26;20110;-91
2023/11/05 02:32:48;;;;;;;1.02;0.70;;;;;;;11.34;59.80;97572.25;5291188;26;20064;-90
2023/11/05 02:35:13;;;;;;;0.10;0.10;;;;;;;11.50;59.81;97561.59;5309092;26;20386;-90
2023/11/05 02:37:39;;;;;;;0.35;0.30;;;;;;;11.48;59.81;97562.66;5308619;26;20310;-90
2023/11/05 02:40:08;;;;;;;0.10;0.10;;;;;;;11.34;59.80;97563.59;5308957;26;20078;-90
2023/11/05 02:42:34;;;;;;;3.83;1.27;;;;;;;11.45;59.80;97566.31;5290748;26;20084;-90
2023/11/05 02:45:00;;;;;;;0.00;0.00;;;;;;;11.40;59.81;97568.41;5308536;26;20064;-90
2023/11/05 02:47:25;;;;;;;1.85;0.65;;;;;;;11.41;59.81;97571.84;5308534;26;20120;-90
2023/11/05 02:49:50;;;;;;;0.37;0.30;;;;;;;11.28;59.80;97567.47;5308881;26;21843;-90
2023/11/05 02:52:16;;;;;;;0.10;0.10;;;;;;;11.26;59.80;97560.69;5309289;26;20139;-90
2023/11/05 02:54:42;;;;;;;0.10;0.10;;;;;;;11.30;59.79;97552.56;5308194;26;20068;-90
2023/11/05 02:57:07;;;;;;;0.90;0.70;;;;;;;11.45;59.80;97548.06;5308787;26;20060;-90
2023/11/05 02:59:33;;;;;;;0.95;0.90;;;;;;;11.46;59.82;97544.53;5308266;26;20108;-90
2023/11/05 03:01:59;;;;;;;0.43;0.35;;;;;;;11.57;59.81;97533.31;5308274;26;20083;-89
2023/11/05 03:04:25;;;;;;;0.00;0.00;;;;;;;11.73;59.82;97538.28;5327589;26;20053;-90
2023/11/05 03:06:51;;;;;;;0.00;0.00;;;;;;;11.74;59.82;97539.94;5308698;26;20122;-90
2023/11/05 03:09:17;;;;;;;0.47;0.47;;;;;;;11.68;59.82;97534.22;5308943;26;20070;-91
2023/11/05 03:11:48;;;;;;;0.45;0.37;;;;;;;11.73;59.82;97515.66;5290943;26;20071;-91
2023/11/05 03:14:14;;;;;;;0.10;0.10;;;;;;;11.77;59.83;97504.06;5290251;26;20063;-91
2023/11/05 03:16:39;;;;;;;0.28;0.28;;;;;;;11.86;59.83;97474.75;5308607;26;20087;-92
2023/11/05 03:19:05;;;;;;;0.00;0.00;;;;;;;11.80;59.82;97462.16;5290727;26;20060;-90
2023/11/05 03:21:31;;;;;;;0.80;0.80;;;;;;;11.72;59.82;97451.44;5308558;26;20076;-91
2023/11/05 03:23:57;;;;;;;0.00;0.00;;;;;;;11.78;59.83;97455.37;5308714;26;20064;-90
2023/11/05 03:26:23;;;;;;;0.20;0.20;;;;;;;11.81;59.82;97456.00;5309100;26;20056;-91
2023/11/05 03:28:49;;;;;;;2.20;0.65;;;;;;;11.76;59.83;97454.66;5308679;26;20082;-91
2023/11/05 03:31:17;;;;;;;0.00;0.00;;;;;;;11.78;59.83;97456.22;5308040;26;25482;-90
2023/11/05 03:33:43;;;;;;;0.00;0.00;;;;;;;11.88;59.82;97466.84;5308831;26;20421;-91
2023/11/05 03:36:09;;;;;;;0.00;0.00;;;;;;;11.81;59.82;97466.44;5290493;26;20083;-90
2023/11/05 03:38:35;;;;;;;0.05;0.05;;;;;;;11.89;59.83;97465.88;5290248;26;20083;-90
2023/11/05 03:41:00;;;;;;;0.20;0.20;;;;;;;11.86;59.83;97450.47;5308756;26;20056;-90
2023/11/05 03:43:26;;;;;;;2.83;0.77;;;;;;;11.88;59.83;97456.41;5308474;26;20109;-91
2023/11/05 03:45:52;;;;;;;0.00;0.00;;;;;;;11.85;59.83;97448.81;5290055;26;20099;-91
2023/11/05 03:48:17;;;;;;;0.08;0.08;;;;;;;11.84;59.84;97447.16;5308754;26;20064;-90
2023/11/05 03:50:43;;;;;;;0.08;0.08;;;;;;;11.79;59.83;97449.25;5308630;26;20056;-90
2023/11/05 03:53:08;;;;;;;0.28;0.10;;;;;;;11.75;59.83;97435.56;5308687;26;20061;-91
2023/11/05 03:55:34;;;;;;;0.00;0.00;;;;;;;11.78;59.83;97424.09;5308683;26;20096;-91
2023/11/05 03:57:59;;;;;;;0.45;0.45;;;;;;;11.82;59.82;97420.34;5308590;26;20056;-92
2023/11/05 04:00:25;;;;;;;0.00;0.00;;;;;;;11.83;59.83;97427.22;5308739;26;20071;-90
2023/11/05 04:02:50;;;;;;;0.00;0.00;;;;;;;11.76;59.83;97439.00;5308064;26;20510;-89
2023/11/05 04:05:15;;;;;;;0.00;0.00;;;;;;;11.68;59.81;97436.97;5308390;26;20115;-89
2023/11/05 04:07:42;;;;;;;1.87;1.25;;;;;;;11.67;59.81;97420.50;5308464;26;20082;-91
2023/11/05 04:10:07;;;;;;;0.00;0.00;;;;;;;11.80;59.82;97407.44;5308770;26;20057;-90
2023/11/05 04:12:34;;;;;;;0.00;0.00;;;;;;;11.76;59.83;97394.72;5308238;26;20311;-90
2023/11/05 04:15:04;;;;;;;0.98;0.52;;;;;;;11.78;59.83;97396.28;5309087;26;20082;-91
2023/11/05 04:17:29;;;;;;;2.10;0.75;;;;;;;11.79;59.83;97374.50;5309347;26;20121;-91
2023/11/05 04:19:55;;;;;;;0.15;0.15;;;;;;;11.81;59.82;97370.00;5309089;26;20056;-91
2023/11/05 04:22:20;;;;;;;0.10;0.10;;;;;;;11.79;59.83;97360.62;5312365;26;20068;-91
2023/11/05 04:24:45;;;;;;;2.12;0.80;;;;;;;11.88;59.83;97350.34;5326264;26;20099;-91
2023/11/05 04:27:11;;;;;;;0.00;0.00;;;;;;;11.85;59.84;97342.78;5308297;26;20123;-91
2023/11/05 04:29:36;;;;;;;0.00;0.00;;;;;;;11.91;59.84;97342.31;5308372;26;20344;-91
2023/11/05 04:32:02;;;;;;;0.00;0.00;;;;;;;11.98;59.85;97327.84;5308400;26;20417;-90
2023/11/05 04:34:31;;;;;;;0.00;0.00;;;;;;;11.88;59.83;97324.28;5308533;26;20068;-91
2023/11/05 04:36:56;;;;;;;0.00;0.00;;;;;;;11.84;59.84;97315.06;5308862;26;20131;-91
2023/11/05 04:39:22;;;;;;;0.47;0.47;;;;;;;11.75;59.83;97318.31;5308364;26;20080;-93
2023/11/05 04:41:47;;;;;;;0.62;0.62;;;;;;;11.85;59.83;97319.31;5308567;26;20068;-90
2023/11/05 04:44:12;;;;;;;3.20;0.52;;;;;;;11.87;59.83;97324.41;5308354;26;20374;-90
2023/11/05 04:46:41;;;;;;;0.00;0.00;;;;;;;11.97;59.83;97318.37;5306988;26;26282;-90
2023/11/05 04:49:06;;;;;;;0.00;0.00;;;;;;;11.91;59.84;97300.59;5307984;26;20064;-90
2023/11/05 04:51:32;;;;;;;0.60;0.60;;;;;;;11.85;59.83;97295.84;5308517;26;20048;-91
2023/11/05 04:53:57;;;;;;;0.00;0.00;;;;;;;11.98;59.84;97280.09;5308011;26;20075;-90
2023/11/05 04:56:23;;;;;;;0.00;0.00;;;;;;;12.04;59.84;97274.41;5308416;26;20107;-90
2023/11/05 04:58:48;;;;;;;0.20;0.20;;;;;;;12.09;59.84;97263.63;5308497;26;20080;-91
2023/11/05 05:01:13;;;;;;;0.00;0.00;;;;;;;12.06;59.85;97266.44;5307744;26;23420;-91
2023/11/05 05:03:39;;;;;;;1.87;1.20;;;;;;;11.94;59.83;97268.25;5308257;26;20076;-90
2023/11/05 05:06:05;;;;;;;0.30;0.30;;;;;;;11.99;59.84;97266.09;5308651;26;20107;-91
2023/11/05 05:08:30;;;;;;;1.08;0.93;;;;;;;11.98;59.83;97267.06;5290080;26;20090;-90
2023/11/05 05:10:55;;;;;;;0.55;0.55;;;;;;;11.96;59.83;97269.78;5307692;26;20070;-90
2023/11/05 05:13:21;;;;;;;0.10;0.10;;;;;;;11.90;59.83;97287.69;5308336;26;20086;-90
2023/11/05 05:15:46;;;;;;;0.25;0.25;;;;;;;11.84;59.83;97290.75;5308439;26;20107;-90
2023/11/05 05:18:12;;;;;;;0.00;0.00;;;;;;;12.00;59.84;97286.00;5307713;26;30356;-90
2023/11/05 05:20:37;;;;;;;0.30;0.30;;;;;;;11.90;59.83;97287.69;5308494;26;20107;-90
2023/11/05 05:23:03;;;;;;;1.45;0.52;;;;;;;11.98;59.84;97280.91;5308209;26;20370;-90
2023/11/05 05:25:29;;;;;;;0.47;0.47;;;;;;;12.06;59.85;97284.69;5308299;26;20705;-90
2023/11/05 05:27:54;;;;;;;0.00;0.00;;;;;;;12.03;59.84;97271.91;5308492;26;20118;-90
2023/11/05 05:30:20;;;;;;;0.08;0.08;;;;;;;11.95;59.83;97254.25;5308228;26;20390;-90
2023/11/05 05:32:45;;;;;;;0.20;0.20;;;;;;;11.93;59.84;97270.03;5308198;26;20106;-89
2023/11/05 05:35:11;;;;;;;0.00;0.00;;;;;;;11.97;59.83;97278.44;5308168;26;20154;-90
2023/11/05 05:37:36;;;;;;;0.93;0.40;;;;;;;11.91;59.83;97284.94;5307863;26;20737;-90
2023/11/05 05:40:04;;;;;;;0.00;0.00;;;;;;;11.92;59.84;97286.63;5308117;26;20068;-90
2023/11/05 05:42:30;;;;;;;1.20;1.10;;;;;;;12.11;59.84;97282.59;5308429;26;20345;-90
2023/11/05 05:44:55;;;;;;;0.10;0.10;;;;;;;12.11;59.85;97280.81;5308058;26;20074;-89
2023/11/05 05:47:21;;;;;;;3.08;0.52;;;;;;;12.04;59.84;97261.34;5307772;26;20097;-90
2023/11/05 05:49:47;;;;;;;0.00;0.00;;;;;;;12.09;59.84;97256.66;5309093;26;20076;-89
2023/11/05 05:52:13;;;;;;;0.43;0.43;;;;;;;11.81;59.82;97236.22;5313617;26;20068;-90
2023/11/05 05:54:38;;;;;;;0.10;0.10;;;;;;;11.99;59.84;97212.19;5308452;26;20082;-92
2023/11/05 05:57:04;;;;;;;1.00;0.90;;;;;;;11.88;59.83;97190.53;5308405;26;20082;-92
2023/11/05 05:59:32;;;;;;;0.15;0.08;;;;;;;11.90;59.84;97184.25;5308366;26;20052;-91
2023/11/05 06:01:57;;;;;;;0.00;0.00;;;;;;;11.80;59.82;97183.28;5308471;26;20075;-92
2023/11/05 06:04:22;;;;;;;3.72;1.95;;;;;;;11.89;59.83;97168.72;5308138;26;20111;-90
2023/11/05 06:06:48;;;;;;;0.40;0.40;;;;;;;11.79;59.83;97192.06;5307758;26;25092;-92
2023/11/05 06:09:19;;;;;;;0.50;0.50;;;;;;;11.85;59.83;97196.81;5307935;26;20104;-92
2023/11/05 06:11:45;;;;;;;0.10;0.10;;;;;;;11.69;59.82;97196.28;5308837;26;20088;-91
2023/11/05 06:14:10;;;;;;;0.08;0.08;;;;;;;11.82;59.82;97188.37;5307947;26;20119;-89
2023/11/05 06:16:36;;;;;;;0.08;0.08;;;;;;;11.92;59.84;97197.97;5307705;26;20111;-89
2023/11/05 06:19:02;;;;;;;0.15;0.15;;;;;;;11.87;59.83;97192.31;5307392;26;20049;-89
2023/11/05 06:21:27;;;;;;;0.00;0.00;;;;;;;11.88;59.83;97207.00;5308240;26;20133;-90
2023/11/05 06:23:53;;;;;;;0.00;0.00;;;;;;;11.95;59.83;97195.13;5308153;26;20420;-89
2023/11/05 06:26:18;;;;;;;0.30;0.30;;;;;;;11.88;59.83;97186.13;5307936;26;20088;-89
2023/11/05 06:28:44;;;;;;;0.00;0.00;;;;;;;11.82;59.82;97167.53;5300555;27;20074;-91
2023/11/05 06:31:09;;;;;;;0.00;0.00;;;;;;;12.03;59.84;97126.72;5300286;27;20167;-89
2023/11/05 06:33:34;;;;;;;0.00;0.00;;;;;;;11.94;59.83;97117.88;5300447;27;20076;-89
2023/11/05 06:36:01;;;;;;;0.00;0.00;;;;;;;12.02;59.84;97125.06;5300604;27;20054;-90
2023/11/05 06:38:27;;;;;;;0.13;0.13;;;;;;;12.07;59.84;97111.69;5282392;27;20160;-89
2023/11/05 06:40:52;;;;;;;0.13;0.13;;;;;;;11.97;59.83;97111.59;5300857;27;20128;-89
2023/11/05 06:43:18;;;;;;;0.62;0.62;;;;;;;11.99;59.84;97083.63;5300317;27;20079;-89
2023/11/05 06:45:44;;;;;;;0.73;0.57;;;;;;;12.00;59.83;97095.69;5282210;27;20098;-90
2023/11/05 06:48:09;;;;;;;0.30;0.30;;;;;;;12.01;59.84;97096.53;5282257;27;20049;-89
2023/11/05 06:50:35;;;;;;;0.30;0.20;;;;;;;11.89;59.83;97070.50;5301024;27;20081;-90
2023/11/05 06:53:00;;;;;;;0.28;0.28;;;;;;;12.02;59.84;97072.94;5283274;27;20053;-90
2023/11/05 06:55:25;;;;;;;0.05;0.00;;;;;;;12.15;59.85;97054.53;5283296;27;20367;-91
2023/11/05 06:57:51;;;;;;;0.25;0.25;;;;;;;11.92;59.84;97053.78;5283171;27;20406;-91
2023/11/05 07:00:17;;;;;;;0.10;0.10;;;;;;;12.11;59.84;97050.53;5301697;27;20346;-90
2023/11/05 07:02:42;;;;;;;0.00;0.00;;;;;;;12.16;59.85;97040.53;5301149;27;20080;-90
2023/11/05 07:05:09;;;;;;;0.10;0.10;;;;;;;12.10;59.84;97033.22;5301609;27;20071;-91
2023/11/05 07:07:35;;;;;;;0.00;0.00;;;;;;;12.06;59.85;97003.13;5302058;27;20072;-92
2023/11/05 07:10:00;;;;;;;0.37;0.37;;;;;;;12.14;59.85;97008.56;5283334;27;20116;-88
2023/11/05 07:12:26;;;;;;;0.90;0.85;;;;;;;12.11;59.84;97009.62;5301529;27;20088;-89
2023/11/05 07:14:51;;;;;;;1.95;0.75;;;;;;;12.21;59.84;97012.31;5283301;27;20105;-88
2023/11/05 07:17:17;;;;;;;0.28;0.28;;;;;;;12.16;59.85;97025.72;5301759;27;20123;-90
2023/11/05 07:19:42;;;;;;;0.00;0.00;;;;;;;12.35;59.85;97009.41;5303281;27;20096;-91
2023/11/05 07:22:07;;;;;;;0.10;0.10;;;;;;;12.32;59.85;97014.88;5308132;27;20078;-90
2023/11/05 07:24:34;;;;;;;0.20;0.20;;;;;;;12.34;59.85;97010.34;5301146;27;20053;-90
2023/11/05 07:27:00;;;;;;;0.00;0.00;;;;;;;12.34;59.85;97001.69;5283740;27;20432;-90
2023/11/05 07:29:26;;;;;;;1.60;0.62;;;;;;;12.50;59.86;96991.63;5322411;26;20071;-91
2023/11/05 07:31:51;;;;;;;0.20;0.20;;;;;;;12.46;59.86;97001.50;5287181;27;20088;-90
2023/11/05 07:34:16;;;;;;;0.25;0.25;;;;;;;12.65;59.87;97000.78;5287280;27;20140;-90
2023/11/05 07:36:42;;;;;;;0.00;0.00;;;;;;;12.63;59.87;96976.59;5286767;27;20056;-90
2023/11/05 07:39:09;;;;;;;0.00;0.00;;;;;;;12.72;59.87;96975.81;5286946;27;20335;-90
2023/11/05 07:41:35;;;;;;;0.00;0.00;;;;;;;12.60;59.87;96979.47;5287382;27;20068;-90
2023/11/05 07:44:00;;;;;;;0.82;0.80;;;;;;;12.54;59.87;96978.22;5305355;27;20106;-90
2023/11/05 07:46:26;;;;;;;0.62;0.60;;;;;;;12.53;59.87;96978.31;5286897;27;20096;-89
2023/11/05 07:48:52;;;;;;;0.00;0.00;;;;;;;12.63;59.87;96974.00;5286648;27;20060;-93
2023/11/05 07:51:19;;;;;;;0.10;0.10;;;;;;;12.77;59.88;96976.25;5285753;27;23470;-91
2023/11/05 07:53:45;;;;;;;1.12;0.88;;;;;;;12.84;59.88;96966.97;5287218;27;20468;-90
2023/11/05 07:56:11;;;;;;;0.10;0.10;;;;;;;12.80;59.88;96965.56;5286817;27;20048;-90
2023/11/05 07:58:36;;;;;;;0.00;0.00;;;;;;;12.67;59.87;96975.37;5286892;27;20104;-91
2023/11/05 08:01:03;;;;;;;0.00;0.00;;;;;;;12.76;59.88;96966.75;5286536;27;20106;-91
2023/11/05 08:03:30;;;;;;;0.00;0.00;;;;;;;12.85;59.88;96959.94;5287197;27;20078;-90
2023/11/05 08:05:56;;;;;;;2.85;0.70;;;;;;;12.77;59.88;96954.53;5287058;27;20052;-90
2023/11/05 08:08:21;;;;;;;0.73;0.73;;;;;;;12.85;59.88;96950.34;5285970;27;20453;-89
2023/11/05 08:10:47;;;;;;;0.37;0.37;;;;;;;13.05;59.90;96942.56;5286424;27;20122;-91
2023/11/05 08:13:14;;;;;;;0.20;0.20;;;;;;;13.04;59.88;96954.81;5305228;27;20060;-90
2023/11/05 08:15:40;;;;;;;0.35;0.35;;;;;;;13.12;59.90;96970.62;5287538;27;20057;-92
2023/11/05 08:18:05;;;;;;;1.55;0.75;;;;;;;13.18;59.90;96969.31;5305266;27;20436;-91
2023/11/05 08:20:32;;;;;;;0.10;0.10;;;;;;;13.18;59.90;96980.56;5286912;27;20076;-90
2023/11/05 08:22:58;;;;;;;1.75;1.15;;;;;;;13.12;59.90;96968.03;5287381;27;20109;-91
2023/11/05 08:25:24;;;;;;;1.98;1.87;;;;;;;13.12;59.90;96988.09;5286816;27;20057;-91
2023/11/05 08:27:50;;;;;;;2.83;2.05;;;;;;;13.24;59.90;96962.72;5286985;27;20065;-91
2023/11/05 08:30:16;;;;;;;1.05;0.80;;;;;;;13.23;59.90;96969.72;5286978;27;20060;-91
2023/11/05 08:32:42;;;;;;;3.05;2.75;;;;;;;13.12;59.90;96959.34;5304748;27;20071;-90
2023/11/05 08:35:08;;;;;;;1.73;1.60;;;;;;;13.18;59.90;96954.44;5286724;27;20089;-90
2023/11/05 08:37:35;;;;;;;0.15;0.15;;;;;;;13.13;59.90;96934.91;5286754;27;20069;-90
2023/11/05 08:40:01;;;;;;;0.37;0.37;;;;;;;13.26;59.90;96929.47;5287012;27;20060;-90
2023/11/05 08:42:26;;;;;;;0.25;0.25;;;;;;;13.24;59.90;96923.53;5287052;27;20057;-90
2023/11/05 08:44:52;;;;;;;1.27;1.17;;;;;;;13.16;59.89;96918.94;5305097;27;20060;-90
2023/11/05 08:47:17;;;;;;;0.00;0.00;;;;;;;13.16;59.90;96918.94;5286857;27;20060;-90
2023/11/05 08:49:42;;;;;;;0.80;0.80;;;;;;;13.28;59.91;96909.25;5291006;27;20078;-91
2023/11/05 08:52:08;;;;;;;0.70;0.57;;;;;;;13.18;59.89;96906.63;5290043;27;21552;-89
2023/11/05 08:54:33;;;;;;;1.02;1.00;;;;;;;13.29;59.91;96923.97;5285543;27;26511;-90
2023/11/05 08:56:59;;;;;;;0.82;0.77;;;;;;;13.23;59.90;96903.59;5303942;27;20334;-91
2023/11/05 08:59:26;;;;;;;0.52;0.37;;;;;;;13.28;59.91;96898.81;5286218;27;20139;-91
2023/11/05 09:01:52;;;;;;;0.30;0.30;;;;;;;13.42;59.92;96895.78;5286827;27;20061;-92
2023/11/05 09:04:18;;;;;;;4.18;0.28;;;;;;;13.36;59.91;96899.78;5286565;27;20057;-92
2023/11/05 09:06:44;;;;;;;0.68;0.68;;;;;;;13.45;59.92;96908.56;5286860;27;20057;-92
2023/11/05 09:09:11;;;;;;;25.12;1.08;;;;;;;13.31;59.91;96903.75;5305306;26;20064;-91
2023/11/05 09:11:37;;;;;;;0.43;0.43;;;;;;;13.30;59.90;96923.00;5304437;26;20071;-92
2023/11/05 09:14:03;;;;;;;2.10;1.35;;;;;;;13.54;59.92;96954.81;5286472;27;20626;-91
2023/11/05 09:16:28;;;;;;;0.25;0.25;;;;;;;13.61;59.92;97051.78;5304284;27;20151;-90
2023/11/05 09:18:53;;;;;;;0.10;0.10;;;;;;;13.52;59.92;97111.75;5285328;27;20060;-90
2023/11/05 09:21:19;;;;;;;0.30;0.30;;;;;;;13.29;59.91;97016.22;5285657;27;20064;-91
2023/11/05 09:23:45;;;;;;;0.00;0.00;;;;;;;13.45;59.92;97042.66;5286436;27;20110;-91
2023/11/05 09:26:11;;;;;;;0.00;0.00;;;;;;;13.44;59.92;97063.69;5286842;27;20077;-90
2023/11/05 09:28:36;;;;;;;7.60;2.78;;;;;;;13.41;59.91;97012.53;5299310;26;20110;-89
2023/11/05 09:31:02;;;;;;;3.20;2.87;;;;;;;13.06;59.90;96946.84;5306093;26;20083;-90
2023/11/05 09:33:28;;;;;;;1.75;1.65;;;;;;;13.25;59.90;96919.94;5307745;26;20436;-89
2023/11/05 09:35:53;;;;;;;0.45;0.45;;;;;;;13.46;59.92;96866.63;5306817;26;20064;-89
2023/11/05 09:38:19;;;;;;;0.10;0.10;;;;;;;13.39;59.92;96830.75;5307706;26;20080;-88
2023/11/05 09:40:45;;;;;;;0.10;0.10;;;;;;;13.50;59.92;96830.63;5325237;26;25559;-90
2023/11/05 09:43:11;;;;;;;0.13;0.13;;;;;;;13.62;59.92;96846.97;5289576;26;20049;-89
2023/11/05 09:45:36;;;;;;;0.00;0.00;;;;;;;13.73;59.93;96842.44;5306565;26;34210;-91
2023/11/05 09:48:03;;;;;;;0.65;0.43;;;;;;;13.80;59.94;96812.12;5289347;26;20080;-89
2023/11/05 09:50:29;;;;;;;0.35;0.28;;;;;;;13.86;59.93;96776.75;5307368;26;20056;-90
2023/11/05 09:53:04;;;;;;;0.03;0.03;;;;;;;13.63;59.92;96760.56;5307369;26;20153;-91
2023/11/05 09:55:30;;;;;;;0.73;0.73;;;;;;;13.90;59.94;96827.78;5325789;26;20036;-89
2023/11/05 09:57:56;;;;;;;0.65;0.52;;;;;;;13.88;59.94;96810.59;5307432;26;20072;-90
2023/11/05 10:00:22;;;;;;;0.30;0.30;;;;;;;13.81;59.94;96763.28;5289197;26;20066;-91
2023/11/05 10:03:05;;;;;;;0.00;0.00;;;;;;;13.79;59.92;96726.00;5307703;26;20096;-90
2023/11/05 10:05:35;;;;;;;0.65;0.65;;;;;;;13.81;59.94;96737.97;5290316;26;20064;-90
2023/11/05 10:08:10;;;;;;;0.70;0.45;;;;;;;13.93;59.94;96777.00;5289919;26;20451;-89
2023/11/05 10:10:37;;;;;;;0.00;0.00;;;;;;;13.83;59.94;96792.72;5309600;26;20446;-90
2023/11/05 10:13:05;;;;;;;1.75;0.68;;;;;;;13.85;59.94;96823.97;5289953;26;20053;-90
2023/11/05 10:15:38;;;;;;;0.00;0.00;;;;;;;13.87;59.94;96841.16;5290537;26;20064;-90
2023/11/05 10:18:04;;;;;;;0.10;0.10;;;;;;;13.79;59.94;96794.81;5310331;26;20123;-90
2023/11/05 10:20:30;;;;;;;0.10;0.08;;;;;;;13.79;59.94;96742.53;5295970;26;20060;-90
2023/11/05 10:23:02;;;;;;;0.62;0.55;;;;;;;13.81;59.94;96807.72;5307197;26;20859;-88
2023/11/05 10:25:27;;;;;;;0.50;0.50;;;;;;;13.70;59.93;96803.47;5325792;26;20072;-88
2023/11/05 10:27:55;;;;;;;0.10;0.10;;;;;;;13.63;59.93;96741.47;5326329;26;20071;-89
2023/11/05 10:30:21;;;;;;;0.37;0.25;;;;;;;13.77;59.93;96806.38;5309224;26;20080;-89
2023/11/05 10:32:54;;;;;;;0.10;0.10;;;;;;;13.89;59.94;96801.78;5289579;26;20389;-89
2023/11/05 10:35:27;;;;;;;0.00;0.00;;;;;;;13.92;59.94;96807.56;5291790;26;20060;-89
2023/11/05 10:37:53;;;;;;;0.00;0.00;;;;;;;13.86;59.93;96807.31;5309150;26;20182;-90
2023/11/05 10:40:19;;;;;;;0.20;0.20;;;;;;;13.89;59.94;96789.53;5308676;26;20085;-91
2023/11/05 10:42:45;;;;;;;0.10;0.10;;;;;;;13.92;59.94;96777.97;5308303;26;20103;-90
2023/11/05 10:45:12;;;;;;;1.67;1.55;;;;;;;14.04;59.95;96795.16;5290141;26;20080;-89
2023/11/05 10:47:37;;;;;;;0.00;0.00;;;;;;;14.01;59.94;96811.12;5290293;26;20055;-89
2023/11/05 10:50:14;;;;;;;2.87;0.65;;;;;;;14.14;59.95;96828.16;5308062;26;26168;-90
2023/11/05 10:52:41;;;;;;;0.60;0.60;;;;;;;14.23;59.96;96838.75;5290785;26;20112;-90
2023/11/05 10:55:08;;;;;;;0.85;0.30;;;;;;;14.27;59.96;96835.69;5289884;26;20060;-90
2023/11/05 10:57:42;;;;;;;0.20;0.20;;;;;;;14.33;59.95;96848.19;5291053;26;20068;-91
2023/11/05 11:00:29;;;;;;;0.10;0.10;;;;;;;14.46;59.97;96844.47;5290599;26;20080;-89
2023/11/05 11:02:56;;;;;;;0.17;0.17;;;;;;;14.48;59.98;96840.75;5293056;26;20397;-90
2023/11/05 11:05:43;;;;;;;0.25;0.25;;;;;;;14.60;59.98;96843.97;5308235;26;20086;-90
2023/11/05 11:08:16;;;;;;;2.28;2.08;;;;;;;14.51;59.97;96829.16;5327072;26;20071;-91
2023/11/05 11:10:45;;;;;;;5.18;0.55;;;;;;;14.41;59.96;96818.69;5308298;26;20052;-90
2023/11/05 11:13:20;;;;;;;1.40;0.73;;;;;;;14.50;59.97;96814.41;5289717;26;20068;-90
2023/11/05 11:15:46;;;;;;;5.65;1.08;;;;;;;14.74;59.99;96804.25;5308505;26;20079;-91
2023/11/05 11:18:17;;;;;;;3.65;2.17;;;;;;;14.85;59.99;96819.72;5308557;26;20088;-92
2023/11/05 11:20:43;;;;;;;1.37;1.17;;;;;;;14.86;59.98;96823.16;5291148;26;20687;-92
2023/11/05 11:23:14;;;;;;;0.05;0.05;;;;;;;14.72;59.99;96824.50;5308375;26;20052;-90
2023/11/05 11:26:13;;;;;;;0.10;0.10;;;;;;;14.72;59.99;96827.94;5290899;26;20059;-91
2023/11/05 11:28:40;;;;;;;0.37;0.37;;;;;;;14.85;59.99;96848.53;5298095;26;20726;-91
2023/11/05 11:31:05;;;;;;;0.10;0.10;;;;;;;14.92;59.99;96867.13;5308687;26;20063;-90